Time;durP1;ratioP1;P1;durP2;ratioP2;P2;SDS_P1;SDS_P2;PMS_P1;PMS_P2;Temp;Humidity;BMP_temperature;BMP_pressure;BME280_temperature;BME280_humidity;BME280_pressure;Samples;Min_cycle;Max_cycle;Signal;HPM_P1;HPM_P2
2022/04/01 00:00:09;;;;;;;2.40;1.60;;;5.70;99.90;;;;;;4957268;28;20027;-82
2022/04/01 00:02:36;;;;;;;3.28;1.95;;;5.60;99.90;;;;;;4957067;28;20031;-83
2022/04/01 00:05:02;;;;;;;2.70;1.60;;;5.60;99.90;;;;;;4974365;28;20034;-83
2022/04/01 00:07:28;;;;;;;2.78;1.60;;;5.60;99.90;;;;;;4956980;28;20025;-82
2022/04/01 00:09:54;;;;;;;2.63;1.67;;;5.50;99.90;;;;;;4974414;28;20403;-83
2022/04/01 00:12:20;;;;;;;2.72;1.77;;;5.50;99.90;;;;;;4974274;28;20090;-83
2022/04/01 00:14:46;;;;;;;2.25;1.50;;;5.30;99.90;;;;;;4974431;28;20059;-82
2022/04/01 00:17:11;;;;;;;2.42;1.50;;;5.20;99.90;;;;;;4974503;28;20378;-83
2022/04/01 00:19:38;;;;;;;3.28;1.40;;;5.20;99.90;;;;;;4973734;28;20027;-83
2022/04/01 00:22:05;;;;;;;2.00;1.25;;;5.00;99.90;;;;;;4973681;28;20557;-82
2022/04/01 00:24:32;;;;;;;3.63;1.42;;;5.00;99.90;;;;;;4974152;28;20138;-82
2022/04/01 00:26:58;;;;;;;2.33;1.35;;;4.90;99.90;;;;;;4974248;28;20023;-82
2022/04/01 00:29:24;;;;;;;4.88;1.40;;;4.90;99.90;;;;;;4974044;28;20046;-82
2022/04/01 00:31:58;;;;;;;3.22;1.80;;;4.80;99.90;;;;;;4956853;28;20031;-82
2022/04/01 00:34:28;;;;;;;4.30;2.00;;;4.90;99.90;;;;;;4956133;28;20121;-82
2022/04/01 00:36:55;;;;;;;2.45;1.77;;;4.80;99.90;;;;;;4973595;28;20019;-83
2022/04/01 00:39:22;;;;;;;4.43;1.60;;;4.80;99.90;;;;;;4974444;28;20023;-83
2022/04/01 00:41:49;;;;;;;2.42;1.30;;;4.80;99.90;;;;;;4973540;28;20125;-82
2022/04/01 00:44:27;;;;;;;3.40;1.98;;;4.70;99.90;;;;;;4973834;28;20157;-82
2022/04/01 00:46:57;;;;;;;6.25;1.50;;;4.70;99.90;;;;;;4972898;28;20041;-82
2022/04/01 00:49:25;;;;;;;3.47;1.33;;;4.70;99.90;;;;;;4973795;28;20086;-82
2022/04/01 00:51:53;;;;;;;1.70;1.20;;;4.50;99.90;;;;;;4973459;28;20499;-82
2022/04/01 00:54:19;;;;;;;4.22;1.60;;;4.60;99.90;;;;;;4972653;28;20034;-82
2022/04/01 00:56:46;;;;;;;2.25;1.42;;;4.50;99.90;;;;;;4972386;28;20482;-82
2022/04/01 00:59:12;;;;;;;2.05;1.10;;;4.50;99.90;;;;;;4973686;28;20023;-82
2022/04/01 01:01:49;;;;;;;2.55;1.50;;;4.40;99.90;;;;;;4964555;28;20035;-83
2022/04/01 01:04:17;;;;;;;3.78;1.33;;;4.60;99.90;;;;;;4972926;28;20302;-83
2022/04/01 01:06:46;;;;;;;2.22;1.40;;;4.50;99.90;;;;;;4973623;28;20034;-83
2022/04/01 01:09:12;;;;;;;1.38;0.95;;;4.50;99.90;;;;;;4973295;28;20513;-83
2022/04/01 01:11:39;;;;;;;3.40;1.60;;;4.50;99.90;;;;;;4973251;28;20027;-83
2022/04/01 01:14:08;;;;;;;4.05;1.40;;;4.40;99.90;;;;;;4973271;28;20439;-82
2022/04/01 01:16:35;;;;;;;2.70;1.45;;;4.50;99.90;;;;;;4973933;28;20030;-83
2022/04/01 01:19:12;;;;;;;2.70;1.35;;;4.40;99.90;;;;;;4972425;28;20520;-82
2022/04/01 01:21:39;;;;;;;2.80;1.20;;;4.40;99.90;;;;;;4955659;28;20106;-83
2022/04/01 01:24:07;;;;;;;2.95;1.58;;;4.40;99.90;;;;;;4955268;28;20026;-82
2022/04/01 01:26:35;;;;;;;4.57;1.38;;;4.40;99.90;;;;;;4973154;28;20120;-82
2022/04/01 01:29:02;;;;;;;3.75;1.55;;;4.40;99.90;;;;;;4955669;28;20142;-82
2022/04/01 01:31:28;;;;;;;2.10;1.20;;;4.40;99.90;;;;;;4955696;28;20031;-82
2022/04/01 01:33:56;;;;;;;2.00;1.42;;;4.40;99.90;;;;;;4973084;28;20748;-82
2022/04/01 01:36:23;;;;;;;2.90;1.40;;;4.20;99.90;;;;;;4972637;28;20059;-82
2022/04/01 01:38:49;;;;;;;2.55;1.30;;;4.30;99.90;;;;;;4973021;28;20438;-83
2022/04/01 01:41:15;;;;;;;2.88;1.52;;;4.20;99.90;;;;;;4955604;28;20027;-83
2022/04/01 01:43:41;;;;;;;4.38;1.42;;;4.30;99.90;;;;;;4972593;28;20539;-83
2022/04/01 01:46:07;;;;;;;5.68;1.38;;;4.20;99.90;;;;;;4955077;28;20030;-83
2022/04/01 01:48:33;;;;;;;2.60;1.45;;;4.20;99.90;;;;;;4973090;28;20031;-83
2022/04/01 01:56:27;;;;;;;4.57;1.50;;;4.20;99.90;;;;;;4954054;29;20054;-83
2022/04/01 01:58:54;;;;;;;3.83;1.42;;;4.10;99.90;;;;;;4950396;28;20482;-83
2022/04/01 02:01:20;;;;;;;2.13;1.45;;;4.00;99.90;;;;;;4955437;28;20387;-82
2022/04/01 02:03:46;;;;;;;2.67;1.55;;;4.00;99.90;;;;;;4955482;28;20046;-83
2022/04/01 02:06:13;;;;;;;2.75;1.60;;;3.90;99.90;;;;;;4972087;28;20106;-82
2022/04/01 02:08:38;;;;;;;2.58;1.60;;;3.90;99.90;;;;;;4973183;28;20023;-83
2022/04/01 02:11:05;;;;;;;5.97;2.05;;;3.90;99.90;;;;;;4972637;28;20037;-82
2022/04/01 02:13:31;;;;;;;5.47;2.13;;;3.80;99.90;;;;;;4972464;28;20019;-83
2022/04/01 02:15:57;;;;;;;5.03;2.22;;;3.90;99.90;;;;;;4973625;28;20016;-83
2022/04/01 02:18:23;;;;;;;3.90;1.90;;;3.90;99.90;;;;;;4976248;28;20034;-83
2022/04/01 02:20:50;;;;;;;3.42;1.95;;;3.90;99.90;;;;;;4958562;28;20041;-83
2022/04/01 02:23:16;;;;;;;4.13;1.52;;;4.00;99.90;;;;;;4976341;28;20027;-83
2022/04/01 02:25:42;;;;;;;3.88;1.73;;;3.90;99.90;;;;;;4976922;28;20119;-83
2022/04/01 02:28:09;;;;;;;4.18;1.60;;;3.90;99.90;;;;;;4976332;28;20078;-83
2022/04/01 02:30:35;;;;;;;3.33;1.80;;;3.80;99.90;;;;;;4959031;28;20462;-83
2022/04/01 02:33:02;;;;;;;3.75;1.67;;;3.80;99.90;;;;;;4959054;28;20026;-83
2022/04/01 02:35:28;;;;;;;3.30;1.60;;;3.80;99.90;;;;;;4958013;28;20027;-83
2022/04/01 02:37:54;;;;;;;2.75;1.70;;;3.90;99.90;;;;;;4959520;28;20023;-83
2022/04/01 02:40:20;;;;;;;4.18;2.00;;;3.90;99.90;;;;;;4976333;28;20383;-83
2022/04/01 02:42:46;;;;;;;3.50;1.80;;;3.90;99.90;;;;;;4958450;28;20031;-83
2022/04/01 02:45:13;;;;;;;3.75;1.38;;;3.90;99.90;;;;;;4975869;28;20459;-82
2022/04/01 02:47:40;;;;;;;3.25;1.73;;;4.00;99.90;;;;;;4958849;28;20495;-83
2022/04/01 02:50:07;;;;;;;2.65;1.45;;;3.90;99.90;;;;;;4975533;28;20109;-82
2022/04/01 02:52:33;;;;;;;3.45;1.80;;;4.00;99.90;;;;;;4958681;28;20038;-83
2022/04/01 02:54:59;;;;;;;6.40;2.08;;;4.00;99.90;;;;;;4958760;28;20512;-83
2022/04/01 02:57:24;;;;;;;6.28;2.00;;;4.00;99.90;;;;;;4958249;28;20019;-83
2022/04/01 02:59:50;;;;;;;4.28;1.83;;;4.00;99.90;;;;;;4958873;28;20027;-82
2022/04/01 03:02:16;;;;;;;3.30;1.83;;;4.00;99.90;;;;;;4975227;28;20034;-83
2022/04/01 03:04:42;;;;;;;3.42;2.00;;;4.00;99.90;;;;;;4975855;28;20082;-83
2022/04/01 03:07:08;;;;;;;3.38;1.67;;;4.00;99.90;;;;;;4957408;28;20469;-82
2022/04/01 03:09:34;;;;;;;5.35;1.90;;;4.00;99.90;;;;;;4975072;28;20102;-82
2022/04/01 03:12:00;;;;;;;3.05;1.75;;;3.90;99.90;;;;;;4975567;28;20399;-82
2022/04/01 03:14:26;;;;;;;5.80;2.42;;;3.90;99.90;;;;;;4958244;28;20035;-82
2022/04/01 03:16:52;;;;;;;3.28;1.80;;;3.90;99.90;;;;;;4975596;28;20023;-82
2022/04/01 03:19:19;;;;;;;4.68;2.20;;;3.90;99.90;;;;;;4974958;28;20105;-82
2022/04/01 03:21:45;;;;;;;4.13;1.80;;;3.90;99.90;;;;;;4975304;28;20026;-82
2022/04/01 03:24:11;;;;;;;4.32;2.00;;;3.90;99.90;;;;;;4975417;28;20031;-83
2022/04/01 03:26:39;;;;;;;2.72;1.90;;;3.80;99.90;;;;;;4974757;28;20015;-82
2022/04/01 03:29:10;;;;;;;3.85;2.00;;;3.80;99.90;;;;;;4975500;28;20054;-82
2022/04/01 03:31:36;;;;;;;2.30;1.50;;;3.70;99.90;;;;;;4955442;29;20492;-82
2022/04/01 03:34:03;;;;;;;2.70;1.50;;;3.70;99.90;;;;;;4954610;29;20035;-82
2022/04/01 03:36:29;;;;;;;3.45;1.60;;;3.60;99.90;;;;;;4956022;29;20102;-82
2022/04/01 03:38:55;;;;;;;5.20;2.00;;;3.60;99.90;;;;;;4955929;29;20492;-82
2022/04/01 03:41:21;;;;;;;3.38;2.05;;;3.50;99.90;;;;;;4954427;29;20023;-83
2022/04/01 03:43:47;;;;;;;6.03;1.73;;;3.50;99.90;;;;;;4938529;28;20114;-83
2022/04/01 03:46:17;;;;;;;5.47;2.08;;;3.40;99.90;;;;;;4974066;28;20098;-83
2022/04/01 03:48:52;;;;;;;5.53;1.90;;;3.40;99.90;;;;;;4975015;28;20550;-83
2022/04/01 03:51:20;;;;;;;2.78;2.08;;;3.40;99.90;;;;;;4957415;28;20097;-82
2022/04/01 03:54:04;;;;;;;3.92;1.85;;;3.20;99.90;;;;;;4961512;28;20070;-82
2022/04/01 03:56:34;;;;;;;3.28;2.03;;;3.30;99.90;;;;;;4956861;28;20061;-82
2022/04/01 03:59:09;;;;;;;4.80;2.10;;;3.20;99.90;;;;;;4974277;28;20026;-81
2022/04/01 04:01:36;;;;;;;6.55;2.03;;;3.30;99.90;;;;;;4957697;28;20031;-82
2022/04/01 04:04:02;;;;;;;5.90;1.83;;;3.30;99.90;;;;;;4974533;28;20023;-83
2022/04/01 04:06:27;;;;;;;2.67;1.80;;;3.30;99.90;;;;;;4957670;28;20066;-84
2022/04/01 04:08:57;;;;;;;4.20;2.05;;;3.30;99.90;;;;;;4957034;28;20491;-84
2022/04/01 04:11:24;;;;;;;4.57;2.00;;;3.40;99.90;;;;;;4974275;28;20019;-86
2022/04/01 04:13:52;;;;;;;3.90;2.05;;;3.40;99.90;;;;;;4974378;28;20491;-83
2022/04/01 04:16:24;;;;;;;5.85;2.20;;;3.40;99.90;;;;;;4956872;28;20026;-82
2022/04/01 04:19:00;;;;;;;4.75;2.20;;;3.50;99.90;;;;;;4974119;28;20059;-80
2022/04/01 04:21:31;;;;;;;4.20;1.70;;;3.50;99.90;;;;;;4974458;28;20041;-79
2022/04/01 04:23:58;;;;;;;7.25;1.80;;;3.40;99.90;;;;;;4974254;28;20030;-79
2022/04/01 04:26:32;;;;;;;4.85;1.90;;;3.50;99.90;;;;;;4974050;28;20085;-81
2022/04/01 04:29:08;;;;;;;8.75;1.65;;;3.50;99.90;;;;;;4974236;28;20023;-80
2022/04/01 04:31:36;;;;;;;4.10;1.50;;;3.50;99.90;;;;;;4972904;28;20031;-80
2022/04/01 04:34:09;;;;;;;4.63;1.73;;;3.40;99.90;;;;;;4957376;28;20023;-80
2022/04/01 04:36:40;;;;;;;5.55;1.67;;;3.40;99.90;;;;;;4973156;28;20022;-81
2022/04/01 04:39:09;;;;;;;5.68;1.92;;;3.40;99.90;;;;;;4973713;28;20033;-80
2022/04/01 04:41:35;;;;;;;4.93;1.65;;;3.30;99.90;;;;;;4974653;28;20022;-80
2022/04/01 04:44:02;;;;;;;8.90;2.45;;;3.50;99.90;;;;;;4973386;28;20073;-80
2022/04/01 04:46:30;;;;;;;4.55;2.00;;;3.50;99.90;;;;;;4973530;28;20023;-83
2022/04/01 04:48:57;;;;;;;5.32;1.80;;;3.40;99.90;;;;;;4956768;28;20027;-82
2022/04/01 04:51:30;;;;;;;6.03;1.90;;;3.40;99.90;;;;;;4972520;28;20046;-81
2022/04/01 04:54:00;;;;;;;3.85;1.67;;;3.40;99.90;;;;;;4973639;28;20043;-86
2022/04/01 04:56:26;;;;;;;8.43;2.22;;;3.40;99.90;;;;;;4972923;28;20058;-81
2022/04/01 04:58:55;;;;;;;5.40;1.80;;;3.50;99.90;;;;;;4972959;28;20073;-81
2022/04/01 05:01:42;;;;;;;8.20;1.80;;;3.40;99.90;;;;;;4972981;28;20054;-81
2022/04/01 05:04:46;;;;;;;4.22;1.58;;;3.40;99.90;;;;;;4950921;28;20054;-81
2022/04/01 05:07:31;;;;;;;5.85;1.80;;;3.50;99.90;;;;;;4913230;29;20119;-82
2022/04/01 05:10:07;;;;;;;6.70;1.40;;;3.40;99.90;;;;;;4913875;29;20028;-82
2022/04/01 05:13:08;;;;;;;6.32;2.22;;;3.50;99.90;;;;;;4913333;29;20095;-82
2022/04/01 05:15:36;;;;;;;7.90;2.28;;;3.50;99.90;;;;;;4879565;29;20037;-84
2022/04/01 05:18:09;;;;;;;7.38;1.90;;;3.50;99.90;;;;;;4876593;29;20029;-81
2022/04/01 05:20:38;;;;;;;8.00;1.77;;;3.40;99.90;;;;;;4874969;29;20153;-83
2022/04/01 06:20:41;;;;;;;12.00;2.40;;;3.40;99.90;;;;;;5682572;23;20066;-78
2022/04/01 06:23:23;;;;;;;8.32;1.92;;;3.40;99.90;;;;;;4994282;28;20030;-78
2022/04/01 06:25:57;;;;;;;9.63;2.28;;;3.30;99.90;;;;;;4991826;28;20030;-78
2022/04/01 06:28:27;;;;;;;10.88;2.60;;;3.30;99.90;;;;;;4991409;28;20018;-79
2022/04/01 06:30:59;;;;;;;11.00;2.38;;;3.30;99.90;;;;;;4992151;28;20524;-78
2022/04/01 06:34:06;;;;;;;14.02;2.95;;;3.30;99.90;;;;;;4990813;28;20363;-78
2022/04/01 06:36:37;;;;;;;11.65;2.55;;;3.30;99.90;;;;;;4931150;29;20031;-79
2022/04/01 06:39:08;;;;;;;4.47;1.95;;;3.30;99.90;;;;;;4924553;29;20043;-78
2022/04/01 06:41:47;;;;;;;7.07;2.03;;;3.30;99.90;;;;;;4931944;29;20036;-78
2022/04/01 06:44:12;;;;;;;8.60;2.72;;;3.30;99.90;;;;;;4916161;29;20184;-76
2022/04/01 06:46:38;;;;;;;8.98;2.42;;;3.40;99.90;;;;;;4932178;29;20115;-79
2022/04/01 06:49:08;;;;;;;8.75;2.53;;;3.30;99.90;;;;;;4926316;29;20024;-79
2022/04/01 06:51:37;;;;;;;5.45;1.95;;;3.30;99.90;;;;;;4929766;29;20039;-79
2022/04/01 06:54:03;;;;;;;9.10;2.67;;;3.40;99.90;;;;;;4917852;29;20372;-79
2022/04/01 06:56:29;;;;;;;7.25;2.20;;;3.40;99.90;;;;;;4931616;29;20495;-79
2022/04/01 06:58:55;;;;;;;8.27;2.15;;;3.40;99.90;;;;;;4936633;29;20060;-79
2022/04/01 07:01:21;;;;;;;12.05;2.83;;;3.40;99.90;;;;;;4936457;29;20691;-79
2022/04/01 07:03:46;;;;;;;7.72;1.85;;;3.30;99.90;;;;;;4934608;29;20043;-79
2022/04/01 07:06:12;;;;;;;10.15;2.45;;;3.40;99.90;;;;;;4935099;29;20031;-79
2022/04/01 07:08:38;;;;;;;9.35;2.25;;;3.40;99.90;;;;;;4934468;29;20123;-79
2022/04/01 07:11:04;;;;;;;7.72;2.33;;;3.40;99.90;;;;;;4979265;28;20042;-79
2022/04/01 07:13:29;;;;;;;8.68;2.45;;;3.60;99.90;;;;;;4976602;28;20394;-79
2022/04/01 07:15:55;;;;;;;7.80;1.90;;;3.60;99.90;;;;;;4994610;28;20031;-75
2022/04/01 07:18:22;;;;;;;8.02;1.92;;;3.70;99.90;;;;;;4994988;28;20022;-79
2022/04/01 07:20:48;;;;;;;9.90;2.38;;;3.80;99.90;;;;;;4985485;28;20051;-78
2022/04/01 07:23:15;;;;;;;8.13;2.22;;;3.80;99.90;;;;;;4974905;28;20037;-78
2022/04/01 07:25:40;;;;;;;7.57;2.35;;;3.80;99.90;;;;;;4974330;28;20033;-78
2022/04/01 07:28:09;;;;;;;10.15;2.50;;;3.80;99.90;;;;;;4975443;28;20098;-74
2022/04/01 07:30:35;;;;;;;8.43;1.80;;;3.80;99.90;;;;;;4976757;28;20105;-80
2022/04/01 07:33:03;;;;;;;6.63;1.83;;;3.90;99.90;;;;;;4956265;28;20035;-78
2022/04/01 07:35:30;;;;;;;8.32;2.17;;;4.00;99.90;;;;;;4974170;28;20557;-79
2022/04/01 07:37:56;;;;;;;8.13;2.63;;;3.90;99.90;;;;;;4974357;28;20512;-79
2022/04/01 07:40:24;;;;;;;12.07;2.50;;;3.80;99.90;;;;;;4972029;28;20027;-80
2022/04/01 07:42:51;;;;;;;11.05;2.38;;;3.70;99.90;;;;;;4969309;28;20035;-81
2022/04/01 07:45:18;;;;;;;9.63;1.88;;;3.70;99.90;;;;;;4955240;28;20030;-79
2022/04/01 07:47:48;;;;;;;11.70;2.05;;;3.80;99.90;;;;;;4974136;28;20061;-81
2022/04/01 07:50:15;;;;;;;8.77;2.35;;;3.80;99.90;;;;;;4971282;28;20399;-80
2022/04/01 07:52:43;;;;;;;14.40;2.80;;;3.80;99.90;;;;;;4970832;28;20026;-81
2022/04/01 07:55:10;;;;;;;12.13;2.03;;;4.00;99.90;;;;;;4958532;28;20387;-81
2022/04/01 07:57:37;;;;;;;6.20;1.70;;;4.10;99.90;;;;;;4973466;28;20026;-81
2022/04/01 08:00:06;;;;;;;10.02;2.40;;;4.10;99.90;;;;;;4973061;28;20502;-81
2022/04/01 08:02:32;;;;;;;12.05;2.60;;;4.10;99.90;;;;;;4972861;28;20034;-81
2022/04/01 08:04:57;;;;;;;9.82;2.55;;;4.00;99.90;;;;;;4973167;28;20035;-79
2022/04/01 08:07:23;;;;;;;11.00;2.10;;;4.20;99.90;;;;;;4972123;28;20034;-80
2022/04/01 08:09:53;;;;;;;13.77;2.20;;;4.40;99.90;;;;;;4973663;28;20037;-86
2022/04/01 08:12:20;;;;;;;12.68;2.92;;;4.70;99.90;;;;;;4961370;28;20027;-82
2022/04/01 08:14:46;;;;;;;8.63;2.05;;;4.80;99.90;;;;;;4973791;28;20031;-82
2022/04/01 08:17:14;;;;;;;10.05;2.80;;;4.70;99.90;;;;;;4957510;28;20056;-82
2022/04/01 08:19:40;;;;;;;17.50;2.22;;;4.80;99.90;;;;;;4974204;28;20050;-80
2022/04/01 08:22:06;;;;;;;14.90;2.38;;;4.70;99.90;;;;;;4956653;28;20317;-81
2022/04/01 08:24:32;;;;;;;8.65;2.35;;;4.60;99.90;;;;;;4977998;28;20031;-82
2022/04/01 08:27:00;;;;;;;12.98;3.05;;;5.00;99.90;;;;;;4968236;28;20405;-80
2022/04/01 08:29:27;;;;;;;12.25;2.17;;;4.90;99.90;;;;;;4979893;28;20031;-80
2022/04/01 08:31:53;;;;;;;8.07;1.98;;;4.70;99.90;;;;;;4980343;28;20539;-82
2022/04/01 08:34:19;;;;;;;10.45;2.33;;;4.50;99.90;;;;;;4971414;28;20038;-82
2022/04/01 08:36:45;;;;;;;8.93;2.17;;;4.50;99.90;;;;;;4953513;28;20482;-83
2022/04/01 08:39:11;;;;;;;7.07;1.90;;;4.50;99.90;;;;;;4954572;28;20031;-82
2022/04/01 08:41:37;;;;;;;8.65;2.45;;;4.30;99.90;;;;;;4972863;28;20022;-83
2022/04/01 08:44:03;;;;;;;10.30;2.20;;;4.90;99.90;;;;;;4974052;28;20030;-81
2022/04/01 08:46:29;;;;;;;14.60;2.38;;;5.50;99.90;;;;;;4955252;28;20019;-81
2022/04/01 08:48:55;;;;;;;11.57;2.13;;;5.30;99.90;;;;;;4974577;28;20031;-82
2022/04/01 08:51:21;;;;;;;13.95;2.00;;;5.30;99.90;;;;;;4964930;28;20035;-82
2022/04/01 08:53:47;;;;;;;11.05;2.05;;;5.30;99.90;;;;;;4971571;28;20105;-82
2022/04/01 08:56:14;;;;;;;5.57;1.55;;;5.80;99.90;;;;;;4971073;28;20050;-82
2022/04/01 08:58:40;;;;;;;12.43;2.35;;;5.90;99.90;;;;;;4954469;28;20023;-82
2022/04/01 09:01:07;;;;;;;8.77;1.90;;;6.40;98.50;;;;;;4954016;28;20019;-82
2022/04/01 09:03:35;;;;;;;10.43;2.05;;;6.80;99.60;;;;;;4971952;28;20487;-82
2022/04/01 09:06:03;;;;;;;11.13;2.00;;;6.40;98.60;;;;;;4959442;28;20023;-81
2022/04/01 09:08:35;;;;;;;10.90;2.20;;;6.00;99.60;;;;;;4969956;28;20031;-82
2022/04/01 09:11:09;;;;;;;11.20;2.05;;;5.90;99.40;;;;;;4953583;28;20398;-80
2022/04/01 09:13:46;;;;;;;15.48;2.00;;;5.40;99.90;;;;;;4954129;28;20510;-81
2022/04/01 09:16:31;;;;;;;10.65;2.00;;;5.50;99.80;;;;;;4973843;28;20015;-81
2022/04/01 09:18:59;;;;;;;15.10;2.53;;;5.40;99.40;;;;;;4953523;28;20137;-80
2022/04/01 09:21:32;;;;;;;4.88;1.70;;;5.80;98.80;;;;;;4969781;28;20410;-81
2022/04/01 09:24:00;;;;;;;10.80;2.05;;;6.10;98.80;;;;;;4954217;28;20054;-82
2022/04/01 09:26:35;;;;;;;11.18;1.63;;;5.80;99.90;;;;;;4975086;28;20029;-83
2022/04/01 09:29:02;;;;;;;13.15;1.95;;;5.50;98.40;;;;;;4971964;28;20121;-83
2022/04/01 09:31:33;;;;;;;10.98;1.65;;;5.60;99.30;;;;;;4952795;28;20941;-80
2022/04/01 09:33:59;;;;;;;7.57;1.58;;;5.40;98.90;;;;;;4970771;28;20034;-79
2022/04/01 09:36:33;;;;;;;7.60;1.58;;;5.20;97.60;;;;;;4970230;28;20047;-79
2022/04/01 09:39:07;;;;;;;17.02;2.30;;;5.10;96.50;;;;;;4967762;28;20434;-80
2022/04/01 09:41:37;;;;;;;8.10;1.67;;;5.10;96.10;;;;;;4970504;28;20426;-82
2022/04/01 09:44:04;;;;;;;9.65;2.95;;;5.10;96.10;;;;;;4976084;28;20035;-82
2022/04/01 09:46:30;;;;;;;17.13;2.58;;;5.30;96.90;;;;;;4972791;28;20042;-82
2022/04/01 09:48:57;;;;;;;7.70;2.00;;;5.60;95.50;;;;;;4970334;28;20442;-81
2022/04/01 09:51:28;;;;;;;11.48;1.83;;;5.60;95.50;;;;;;4970972;28;20022;-80
2022/04/01 09:53:54;;;;;;;10.52;1.60;;;6.00;95.70;;;;;;4976734;28;20487;-82
2022/04/01 09:56:41;;;;;;;9.85;2.17;;;6.10;95.30;;;;;;4966208;28;20089;-86
2022/04/01 09:59:08;;;;;;;9.88;1.83;;;5.90;94.70;;;;;;4946324;28;20519;-81
2022/04/01 10:01:35;;;;;;;8.45;1.90;;;6.00;95.20;;;;;;4963138;28;20015;-82
2022/04/01 10:04:02;;;;;;;6.13;1.88;;;5.60;94.70;;;;;;4962706;28;20039;-88
2022/04/01 10:06:31;;;;;;;7.63;2.20;;;5.20;94.00;;;;;;4970211;28;20019;-82
2022/04/01 10:09:00;;;;;;;9.27;1.83;;;5.30;94.80;;;;;;4965841;28;20062;-85
2022/04/01 10:11:27;;;;;;;10.98;2.00;;;5.30;95.90;;;;;;4966005;28;20038;-83
2022/04/01 10:13:54;;;;;;;6.90;1.58;;;5.10;95.70;;;;;;4969142;28;20045;-83
2022/04/01 10:16:20;;;;;;;6.38;1.52;;;5.40;96.90;;;;;;4950179;28;20062;-85
2022/04/01 10:18:48;;;;;;;7.68;1.50;;;5.60;95.10;;;;;;4952622;28;20037;-86
2022/04/01 10:21:17;;;;;;;9.88;1.60;;;5.50;94.80;;;;;;4967508;28;20414;-87
2022/04/01 10:23:59;;;;;;;4.60;1.40;;;5.90;96.00;;;;;;4968375;28;20038;-82
2022/04/01 10:26:31;;;;;;;5.80;1.60;;;6.30;91.10;;;;;;4969532;28;20026;-79
2022/04/01 10:28:58;;;;;;;6.45;1.65;;;6.80;90.10;;;;;;4971979;28;20047;-80
2022/04/01 10:31:25;;;;;;;7.57;1.67;;;6.10;88.20;;;;;;4970832;28;20363;-86
2022/04/01 10:33:51;;;;;;;6.30;1.45;;;5.80;88.20;;;;;;4953748;28;20051;-81
2022/04/01 10:36:26;;;;;;;9.45;1.65;;;5.50;89.10;;;;;;4965702;28;20046;-84
2022/04/01 10:39:06;;;;;;;11.52;1.83;;;6.00;90.10;;;;;;4963639;28;20019;-82
2022/04/01 10:41:32;;;;;;;6.55;1.30;;;6.70;89.30;;;;;;4969201;28;20038;-82
2022/04/01 10:44:00;;;;;;;9.23;1.88;;;6.50;86.40;;;;;;4969669;28;20031;-82
2022/04/01 10:46:27;;;;;;;4.43;1.23;;;6.60;88.50;;;;;;4975369;28;20030;-82
2022/04/01 10:52:23;;;;;;;6.70;1.80;;;7.20;82.70;;;;;;4964670;28;20078;-80
2022/04/01 10:55:08;;;;;;;10.32;2.03;;;8.20;83.20;;;;;;4965147;28;20138;-81
2022/04/01 10:57:43;;;;;;;7.18;2.08;;;8.00;74.90;;;;;;4977657;28;20057;-81
2022/04/01 11:00:13;;;;;;;7.43;1.70;;;7.20;76.10;;;;;;4975741;28;20033;-81
2022/04/01 11:02:39;;;;;;;5.22;1.67;;;6.40;78.80;;;;;;4975419;28;20114;-83
2022/04/01 11:05:31;;;;;;;10.90;1.70;;;6.20;82.80;;;;;;4976088;28;20062;-82
2022/04/01 11:08:17;;;;;;;8.55;1.38;;;5.90;84.00;;;;;;4956320;28;20446;-81
2022/04/01 11:11:05;;;;;;;12.40;2.75;;;5.50;83.40;;;;;;4972772;28;20030;-81
2022/04/01 11:13:31;;;;;;;5.43;1.50;;;5.30;85.10;;;;;;4956806;28;20458;-81
2022/04/01 11:16:20;;;;;;;5.30;1.50;;;5.20;86.50;;;;;;4974334;28;20110;-81
2022/04/01 11:19:18;;;;;;;15.88;2.70;;;5.30;85.80;;;;;;4974941;28;21149;-80
2022/04/01 11:21:46;;;;;;;11.80;3.40;;;6.20;85.40;;;;;;4960562;28;20046;-81
2022/04/01 11:24:33;;;;;;;8.10;1.65;;;6.80;83.00;;;;;;4959491;28;20157;-81
2022/04/01 11:27:23;;;;;;;9.15;2.58;;;6.40;79.10;;;;;;4957374;28;20447;-81
2022/04/01 11:30:07;;;;;;;11.40;2.55;;;6.10;81.50;;;;;;4971827;28;20025;-81
2022/04/01 11:32:37;;;;;;;8.38;1.90;;;6.00;80.40;;;;;;4976277;28;20037;-82
2022/04/01 11:35:05;;;;;;;6.80;1.80;;;5.90;78.80;;;;;;4960087;28;20534;-82
2022/04/01 11:37:39;;;;;;;11.45;2.30;;;6.00;80.20;;;;;;4975237;28;20030;-82
2022/04/01 11:40:09;;;;;;;7.13;2.13;;;6.00;80.50;;;;;;4974365;28;20026;-83
2022/04/01 11:42:57;;;;;;;5.10;1.38;;;5.90;76.60;;;;;;4984254;28;20109;-81
2022/04/01 11:45:27;;;;;;;10.48;1.77;;;6.00;76.80;;;;;;4974909;28;20027;-81
2022/04/01 11:47:54;;;;;;;8.32;1.80;;;6.10;79.50;;;;;;4957382;28;20035;-81
2022/04/01 11:50:23;;;;;;;9.68;1.92;;;6.20;76.70;;;;;;4985381;28;20457;-82
2022/04/01 11:52:57;;;;;;;8.38;2.30;;;6.30;78.10;;;;;;4958787;28;20073;-81
2022/04/01 11:55:28;;;;;;;10.82;2.05;;;6.20;78.70;;;;;;4958495;28;20122;-82
2022/04/01 11:57:56;;;;;;;5.70;1.50;;;6.10;79.70;;;;;;4976321;28;20031;-81
2022/04/01 12:00:24;;;;;;;3.17;1.08;;;6.00;79.00;;;;;;4980266;28;20018;-82
2022/04/01 12:02:51;;;;;;;11.93;2.67;;;5.80;78.10;;;;;;4973780;28;20034;-82
2022/04/01 12:05:18;;;;;;;5.40;1.80;;;6.00;79.80;;;;;;4972129;28;20054;-82
2022/04/01 12:10:57;;;;;;;4.78;1.48;;;6.30;82.60;;;;;;4973473;28;20410;-82
2022/04/01 12:13:25;;;;;;;5.47;1.63;;;6.20;83.70;;;;;;4957072;28;20033;-82
2022/04/01 12:15:55;;;;;;;6.70;1.55;;;6.20;81.80;;;;;;4973287;28;20027;-86
2022/04/01 12:18:26;;;;;;;6.47;1.42;;;6.10;81.40;;;;;;4979304;28;20046;-82
2022/04/01 12:20:55;;;;;;;10.05;2.15;;;6.00;79.60;;;;;;4972658;28;20070;-83
2022/04/01 12:23:22;;;;;;;9.68;2.33;;;5.60;81.00;;;;;;4978892;28;20031;-82
2022/04/01 12:25:50;;;;;;;7.93;1.77;;;5.60;82.50;;;;;;4972881;28;20493;-82
2022/04/01 12:28:21;;;;;;;15.63;2.08;;;5.70;83.00;;;;;;4960706;28;20405;-84
2022/04/01 12:30:51;;;;;;;6.10;1.70;;;5.70;82.40;;;;;;4969973;28;20576;-82
2022/04/01 12:33:19;;;;;;;5.88;2.30;;;6.00;80.40;;;;;;4967290;28;20511;-81
2022/04/01 12:36:02;;;;;;;8.02;1.92;;;6.00;80.20;;;;;;4963191;28;20023;-82
2022/04/01 12:38:31;;;;;;;7.50;2.70;;;6.20;78.90;;;;;;4953881;28;20478;-82
2022/04/01 12:41:00;;;;;;;11.88;2.28;;;6.50;78.40;;;;;;4970894;28;20042;-82
2022/04/01 12:44:02;;;;;;;3.15;1.50;;;7.00;77.70;;;;;;4960155;28;20104;-81
2022/04/01 12:46:33;;;;;;;4.80;1.83;;;7.00;75.80;;;;;;4962937;28;20042;-82
2022/04/01 12:48:59;;;;;;;11.32;1.88;;;7.20;74.40;;;;;;4972174;28;20029;-81
2022/04/01 12:51:33;;;;;;;4.57;1.60;;;7.40;74.20;;;;;;4973852;28;20025;-81
2022/04/01 12:54:11;;;;;;;6.30;2.35;;;7.00;71.00;;;;;;4952622;28;20035;-82
2022/04/01 12:56:48;;;;;;;7.82;1.50;;;6.70;70.20;;;;;;4949291;28;20495;-82
2022/04/01 12:59:17;;;;;;;8.65;2.08;;;6.60;70.40;;;;;;4970696;28;20019;-81
2022/04/01 13:01:44;;;;;;;6.88;1.65;;;6.40;72.00;;;;;;4970932;28;20019;-82
2022/04/01 13:04:18;;;;;;;7.10;1.80;;;6.70;73.40;;;;;;4972108;28;20041;-81
2022/04/01 13:07:15;;;;;;;8.25;1.77;;;6.90;73.60;;;;;;4971552;28;20035;-82
2022/04/01 13:09:46;;;;;;;9.25;1.58;;;7.10;74.40;;;;;;4971540;28;20026;-82
2022/04/01 13:12:12;;;;;;;7.88;1.20;;;7.30;74.60;;;;;;4971978;28;20380;-83
2022/04/01 13:14:38;;;;;;;6.43;2.00;;;7.10;74.00;;;;;;4955633;28;20165;-82
2022/04/01 13:17:11;;;;;;;12.20;2.22;;;7.40;73.50;;;;;;4972055;28;20033;-82
2022/04/01 13:19:40;;;;;;;7.18;1.95;;;7.10;71.30;;;;;;4974048;28;20023;-82
2022/04/01 13:22:07;;;;;;;6.63;2.15;;;6.90;72.30;;;;;;4976454;28;20039;-82
2022/04/01 13:24:43;;;;;;;8.63;2.80;;;6.70;73.00;;;;;;4973463;28;20496;-81
2022/04/01 13:27:14;;;;;;;8.95;2.70;;;6.80;72.40;;;;;;4969731;28;20041;-83
2022/04/01 13:29:40;;;;;;;11.52;4.32;;;7.30;72.90;;;;;;4954049;28;20039;-83
2022/04/01 13:32:07;;;;;;;9.38;2.95;;;7.40;72.50;;;;;;4958875;28;20035;-83
2022/04/01 13:34:34;;;;;;;5.10;1.17;;;7.50;71.70;;;;;;4969258;28;20525;-82
2022/04/01 13:37:01;;;;;;;2.17;1.00;;;7.70;71.20;;;;;;4954490;28;20438;-82
2022/04/01 13:39:28;;;;;;;5.20;1.40;;;7.60;70.70;;;;;;4972450;28;20070;-82
2022/04/01 13:41:57;;;;;;;9.73;1.23;;;7.40;69.50;;;;;;4976494;28;20018;-82
2022/04/01 13:44:22;;;;;;;6.22;1.75;;;7.30;69.60;;;;;;4955071;28;20498;-82
2022/04/01 13:46:48;;;;;;;5.45;1.90;;;7.20;69.70;;;;;;4954838;28;20054;-81
2022/04/01 13:49:15;;;;;;;4.05;1.45;;;7.10;70.10;;;;;;4972761;28;20045;-81
2022/04/01 13:51:41;;;;;;;9.55;1.70;;;6.90;71.80;;;;;;4972628;28;20127;-81
2022/04/01 13:54:08;;;;;;;6.38;1.92;;;6.90;72.10;;;;;;4955732;28;20045;-81
2022/04/01 13:56:34;;;;;;;8.50;2.30;;;7.40;71.90;;;;;;4971371;28;20722;-81
2022/04/01 13:59:00;;;;;;;3.22;1.05;;;7.50;70.70;;;;;;4958760;28;20077;-81
2022/04/01 14:01:26;;;;;;;5.18;1.52;;;7.70;68.40;;;;;;4980839;28;20015;-80
2022/04/01 14:03:53;;;;;;;3.45;1.10;;;7.60;65.00;;;;;;4972654;28;20450;-81
2022/04/01 14:06:21;;;;;;;4.32;1.50;;;7.60;64.70;;;;;;4955342;28;20033;-81
2022/04/01 14:08:47;;;;;;;2.03;1.08;;;7.70;64.30;;;;;;4972448;28;20027;-80
2022/04/01 14:11:13;;;;;;;4.63;1.80;;;7.70;64.00;;;;;;4978984;28;20011;-80
2022/04/01 14:13:39;;;;;;;6.70;1.73;;;7.70;64.20;;;;;;4975429;28;20069;-81
2022/04/01 14:16:05;;;;;;;7.05;1.90;;;7.50;64.40;;;;;;4964439;28;20030;-80